To NAV CANADA Home Page Login to a new session Search on AWWS site Feedback and Comments Disclaimer Vers la page française équivalente Tips FAQ What's new on the site To the Forecasts and Observations / NOTAM section To "File a Flight Plan" website Publications and other links Update of the User's profile FIC Telephone Numbers My Weather Data Folder Route Weather Data Regional Weather Data Local Weather Data To the Forecasts and Observations / NOTAM section
Request Generated 10/17/2017 at 01:45:31 UTC . Weather information available at that time is displayed.

METAR/TAF

MONTREAL/PIERRE-ELLIOTT-TRUDEAU INTL/QC    

METAR CYUL 170100Z 29006KT 15SM FEW120 05/M02 A3018 RMK AC1 AC TR
SLP223=
METAR CYUL 170000Z 29006KT 15SM SCT070 BKN120 06/M00 A3016 RMK AC4AC2
SLP217=
METAR CYUL 162300Z 27009KT 15SM FEW030 BKN070 BKN120 07/M01 A3015 RMK
CF1AC5AC1 WND ESTD SLP212=

TAF CYUL 162338Z 1700/1724 30010KT P6SM FEW030 BKN070
FM170300 29008KT P6SM FEW070
FM171100 22008KT P6SM BKN080
FM171500 18012KT P6SM BKN040 BKN120
FM171800 20012G22KT P6SM SCT030 BKN120
BECMG 1719/1721 22018G28KT
RMK NXT FCST BY 170300Z=
Your time UTC time
Weather data provided by Environment Canada and NAV CANADA